Time;durP1;ratioP1;P1;durP2;ratioP2;P2;SDS_P1;SDS_P2;PMS_P1;PMS_P2;Temp;Humidity;BMP_temperature;BMP_pressure;BME280_temperature;BME280_humidity;BME280_pressure;Samples;Min_cycle;Max_cycle;Signal;HPM_P1;HPM_P2
2022/11/28 00:00:37;;;;;;;13.23;6.35;;;5.00;91.20;;;;;;5017997;28;20029;-68
2022/11/28 00:03:02;;;;;;;13.05;6.53;;;5.00;91.60;;;;;;5042365;28;20035;-68
2022/11/28 00:05:28;;;;;;;12.85;6.82;;;5.00;92.00;;;;;;5029453;28;20485;-69
2022/11/28 00:07:54;;;;;;;11.77;6.90;;;5.00;92.30;;;;;;5022757;28;20103;-68
2022/11/28 00:10:20;;;;;;;11.93;6.30;;;5.00;92.90;;;;;;5036367;28;20064;-69
2022/11/28 00:12:46;;;;;;;13.15;7.13;;;5.00;93.30;;;;;;5026513;28;20029;-69
2022/11/28 00:15:12;;;;;;;17.25;8.40;;;4.90;92.90;;;;;;5024713;28;20418;-68
2022/11/28 00:17:37;;;;;;;15.20;7.90;;;4.90;93.40;;;;;;5036909;28;20057;-68
2022/11/28 00:20:04;;;;;;;23.80;9.93;;;4.80;93.90;;;;;;5019894;28;20026;-68
2022/11/28 00:22:29;;;;;;;12.85;7.22;;;4.80;93.80;;;;;;5024650;28;20048;-69
2022/11/28 00:24:55;;;;;;;13.15;6.50;;;4.70;93.80;;;;;;5030680;28;20026;-69
2022/11/28 00:27:23;;;;;;;12.27;7.55;;;4.70;93.80;;;;;;5026497;28;20034;-69
2022/11/28 00:29:49;;;;;;;12.73;8.30;;;4.70;94.10;;;;;;5025480;28;20029;-69
2022/11/28 00:32:14;;;;;;;15.77;10.75;;;4.60;95.20;;;;;;5029503;28;20490;-69
2022/11/28 00:34:40;;;;;;;19.30;11.15;;;4.40;96.40;;;;;;5023094;28;20033;-69
2022/11/28 00:37:05;;;;;;;19.17;11.60;;;4.20;97.40;;;;;;5028595;28;20063;-69
2022/11/28 00:39:31;;;;;;;16.23;11.45;;;4.10;98.00;;;;;;5039484;28;20030;-69
2022/11/28 00:41:56;;;;;;;20.25;11.65;;;3.90;98.00;;;;;;5035469;28;20133;-69
2022/11/28 00:44:22;;;;;;;16.05;11.18;;;3.80;98.00;;;;;;5029961;28;20022;-69
2022/11/28 00:46:48;;;;;;;15.68;10.63;;;3.80;98.00;;;;;;5032603;28;20347;-69
2022/11/28 00:49:13;;;;;;;16.75;11.13;;;3.70;98.00;;;;;;5017634;28;20032;-69
2022/11/28 00:51:39;;;;;;;17.27;11.45;;;3.60;98.00;;;;;;5036736;28;20030;-69
2022/11/28 00:54:06;;;;;;;19.20;11.88;;;3.60;98.00;;;;;;5020096;28;20029;-69
2022/11/28 00:56:34;;;;;;;15.25;10.23;;;3.60;98.00;;;;;;5020194;28;20037;-69
2022/11/28 00:59:00;;;;;;;14.30;8.68;;;3.60;98.00;;;;;;5032271;28;20108;-69
2022/11/28 01:01:32;;;;;;;14.48;7.95;;;3.70;98.00;;;;;;5033099;28;20105;-68
2022/11/28 01:04:00;;;;;;;13.82;8.52;;;3.90;98.00;;;;;;5008614;28;20446;-69
2022/11/28 01:06:34;;;;;;;11.05;7.00;;;4.00;98.00;;;;;;5036105;28;20067;-68
2022/11/28 01:09:04;;;;;;;11.02;6.18;;;4.10;97.70;;;;;;5038845;28;20026;-68
2022/11/28 01:11:30;;;;;;;12.95;9.13;;;4.10;96.70;;;;;;5014128;28;20116;-68
2022/11/28 01:13:57;;;;;;;15.68;9.38;;;4.20;96.60;;;;;;5034736;28;20125;-68
2022/11/28 01:16:23;;;;;;;14.02;8.98;;;4.10;97.50;;;;;;5016918;28;20046;-70
2022/11/28 01:18:52;;;;;;;12.85;8.52;;;4.10;97.70;;;;;;5029060;28;20050;-70
2022/11/28 01:21:18;;;;;;;11.88;7.88;;;4.00;98.00;;;;;;5019242;28;20026;-69
2022/11/28 01:23:44;;;;;;;14.07;8.48;;;4.00;97.80;;;;;;5033652;28;20052;-70
2022/11/28 01:26:15;;;;;;;11.80;7.82;;;4.00;98.00;;;;;;5010985;28;20026;-69
2022/11/28 01:28:40;;;;;;;13.35;8.32;;;3.90;98.00;;;;;;5009629;28;20104;-69
2022/11/28 01:31:12;;;;;;;10.82;7.55;;;3.90;98.00;;;;;;5006886;28;20362;-69
2022/11/28 01:33:38;;;;;;;12.50;7.95;;;3.90;98.00;;;;;;5004455;28;20022;-69
2022/11/28 01:36:04;;;;;;;12.98;7.53;;;3.90;98.00;;;;;;4987309;28;20040;-70
2022/11/28 01:38:29;;;;;;;9.27;6.10;;;3.90;98.00;;;;;;5010780;28;20117;-69
2022/11/28 01:40:55;;;;;;;10.45;6.65;;;3.90;97.70;;;;;;5001835;28;20451;-69
2022/11/28 01:43:21;;;;;;;11.82;6.63;;;4.00;97.00;;;;;;5018481;28;20022;-69
2022/11/28 01:45:47;;;;;;;10.68;6.00;;;4.00;96.50;;;;;;5014782;28;20075;-69
2022/11/28 01:48:17;;;;;;;8.90;5.70;;;4.10;96.00;;;;;;4997271;28;20108;-69
2022/11/28 01:50:48;;;;;;;9.10;5.95;;;4.10;96.60;;;;;;5005988;28;20034;-69
2022/11/28 01:53:15;;;;;;;8.15;5.47;;;4.00;96.50;;;;;;5014818;28;20314;-68
2022/11/28 01:55:57;;;;;;;10.77;6.32;;;4.00;96.80;;;;;;5011260;28;20026;-69
2022/11/28 01:58:24;;;;;;;9.55;5.93;;;3.90;97.00;;;;;;5014846;28;20034;-69
2022/11/28 02:00:50;;;;;;;8.35;5.55;;;3.90;97.20;;;;;;4994743;28;20033;-69
2022/11/28 02:03:27;;;;;;;9.20;5.55;;;3.90;97.10;;;;;;5002127;28;20030;-69
2022/11/28 02:05:53;;;;;;;8.65;5.30;;;4.10;96.50;;;;;;5010201;28;20306;-69
2022/11/28 02:08:19;;;;;;;10.68;5.45;;;4.10;96.50;;;;;;5004134;28;20057;-68
2022/11/28 02:10:57;;;;;;;8.25;5.35;;;4.20;96.40;;;;;;4998423;28;20042;-69
2022/11/28 02:13:46;;;;;;;10.07;5.15;;;4.20;96.20;;;;;;4993783;28;20419;-68
2022/11/28 02:16:32;;;;;;;9.23;5.85;;;4.30;94.60;;;;;;5005086;28;20037;-69
2022/11/28 02:19:23;;;;;;;8.75;5.88;;;4.30;94.20;;;;;;5005590;28;20038;-68
2022/11/28 02:21:55;;;;;;;9.25;5.63;;;4.40;94.50;;;;;;5008313;28;20068;-69
2022/11/28 02:24:56;;;;;;;9.05;5.50;;;4.40;94.80;;;;;;5033095;28;20112;-69
2022/11/28 02:27:43;;;;;;;8.52;5.25;;;4.30;95.40;;;;;;5020030;28;20087;-69
2022/11/28 02:30:19;;;;;;;11.57;5.78;;;4.30;95.80;;;;;;5031121;28;20037;-69
2022/11/28 02:33:20;;;;;;;8.93;5.05;;;4.30;95.80;;;;;;5035400;28;20327;-69
2022/11/28 02:36:06;;;;;;;9.57;5.30;;;4.30;95.20;;;;;;5023865;28;20021;-69
2022/11/28 02:38:40;;;;;;;9.27;5.45;;;4.40;94.50;;;;;;5031061;28;20409;-69
2022/11/28 02:41:17;;;;;;;;;;;4.40;94.50;;;;;;5037553;28;20056;-69
2022/11/28 02:43:58;;;;;;;7.65;4.90;;;4.50;94.80;;;;;;5002219;28;20547;-69
2022/11/28 02:46:33;;;;;;;8.63;5.00;;;4.50;94.20;;;;;;5021534;28;20125;-69
2022/11/28 02:49:17;;;;;;;8.48;5.60;;;4.60;94.20;;;;;;5019801;28;20032;-69
2022/11/28 02:51:50;;;;;;;7.47;5.35;;;4.60;94.10;;;;;;5034390;28;20118;-69
2022/11/28 02:54:19;;;;;;;8.85;5.40;;;4.50;94.20;;;;;;5036990;28;20326;-68
2022/11/28 02:56:49;;;;;;;7.60;4.90;;;4.50;94.00;;;;;;5023151;28;20358;-69
2022/11/28 02:59:40;;;;;;;10.45;5.18;;;4.50;94.40;;;;;;5023839;28;20108;-69
2022/11/28 03:02:17;;;;;;;7.70;4.88;;;4.50;94.50;;;;;;5035833;28;20033;-69
2022/11/28 03:05:04;;;;;;;7.57;4.70;;;4.50;94.10;;;;;;5027603;28;20029;-69
2022/11/28 03:07:38;;;;;;;8.52;4.88;;;4.50;93.70;;;;;;5026911;28;20123;-69
2022/11/28 03:10:17;;;;;;;7.72;4.72;;;4.50;93.90;;;;;;5034638;28;20116;-69
2022/11/28 03:12:51;;;;;;;7.88;4.72;;;4.50;94.30;;;;;;5024652;28;20029;-69
2022/11/28 03:15:25;;;;;;;7.60;4.47;;;4.60;92.70;;;;;;5038580;28;20321;-69
2022/11/28 03:18:13;;;;;;;8.55;5.40;;;4.70;93.00;;;;;;5025428;28;20088;-69
2022/11/28 03:20:46;;;;;;;8.55;4.57;;;4.70;93.10;;;;;;5037538;28;20029;-69
2022/11/28 03:23:41;;;;;;;8.13;4.63;;;4.70;92.90;;;;;;5029051;28;20134;-69
2022/11/28 03:26:30;;;;;;;8.18;4.95;;;4.60;93.10;;;;;;5037589;28;20318;-69
2022/11/28 03:29:07;;;;;;;8.77;5.32;;;4.70;92.60;;;;;;5031513;28;20022;-69
2022/11/28 03:31:40;;;;;;;7.47;4.72;;;4.70;92.90;;;;;;5019659;28;20022;-69
2022/11/28 03:34:13;;;;;;;7.72;3.95;;;4.70;92.40;;;;;;5030341;28;20033;-68
2022/11/28 03:36:52;;;;;;;8.63;4.50;;;4.80;91.80;;;;;;5033404;28;20083;-69
2022/11/28 03:39:22;;;;;;;7.55;4.63;;;4.80;91.50;;;;;;5005313;28;20036;-69
2022/11/28 03:41:55;;;;;;;8.93;5.03;;;4.90;91.90;;;;;;5045139;28;20410;-69
2022/11/28 03:44:27;;;;;;;8.25;5.13;;;4.80;92.00;;;;;;5015720;28;20090;-69
2022/11/28 03:46:56;;;;;;;8.82;4.68;;;4.80;92.50;;;;;;5034290;28;20449;-69
2022/11/28 03:49:31;;;;;;;9.65;5.38;;;4.70;92.80;;;;;;5029332;28;20029;-69
2022/11/28 03:52:05;;;;;;;7.90;5.30;;;4.70;93.00;;;;;;5035915;28;20029;-69
2022/11/28 03:54:57;;;;;;;7.55;5.03;;;4.60;93.50;;;;;;5036248;28;20053;-69
2022/11/28 03:57:38;;;;;;;9.48;5.72;;;4.50;94.10;;;;;;5025376;28;20030;-69
2022/11/28 04:00:14;;;;;;;8.63;5.10;;;4.40;94.60;;;;;;5025245;28;20102;-69
2022/11/28 04:02:48;;;;;;;9.20;5.15;;;4.40;94.60;;;;;;5030085;28;20029;-69
2022/11/28 04:05:18;;;;;;;9.48;5.20;;;4.50;94.10;;;;;;5024174;28;20037;-68
2022/11/28 04:08:08;;;;;;;9.25;5.50;;;4.50;93.60;;;;;;5035134;28;20045;-68
2022/11/28 04:10:41;;;;;;;14.70;9.30;;;4.60;93.50;;;;;;5037538;28;20064;-68
2022/11/28 04:13:18;;;;;;;16.48;9.95;;;4.60;94.10;;;;;;5021069;28;20119;-70
2022/11/28 04:15:53;;;;;;;12.10;8.32;;;4.50;94.50;;;;;;5032926;28;20135;-69
2022/11/28 04:18:55;;;;;;;8.55;5.13;;;4.50;93.90;;;;;;5029317;28;20381;-70
2022/11/28 04:21:40;;;;;;;9.50;5.45;;;4.50;94.20;;;;;;5035440;28;20017;-69
2022/11/28 04:24:10;;;;;;;9.48;5.72;;;4.50;93.90;;;;;;5002060;28;20041;-69
2022/11/28 04:26:40;;;;;;;9.70;6.07;;;4.60;93.50;;;;;;5009491;28;20019;-69
2022/11/28 04:29:10;;;;;;;9.52;5.85;;;4.50;94.20;;;;;;5015751;28;20037;-69
2022/11/28 04:31:39;;;;;;;11.20;6.47;;;4.40;94.50;;;;;;5011967;28;20034;-69
2022/11/28 04:34:08;;;;;;;29.40;17.58;;;4.30;94.80;;;;;;5009193;28;20093;-69
2022/11/28 04:36:36;;;;;;;13.40;8.48;;;4.30;94.90;;;;;;5009472;28;20030;-69
2022/11/28 04:39:05;;;;;;;12.88;7.47;;;4.20;95.30;;;;;;5018734;28;20026;-69
2022/11/28 04:41:50;;;;;;;8.60;5.00;;;4.10;95.70;;;;;;4999429;28;20026;-69
2022/11/28 04:44:22;;;;;;;8.45;5.55;;;4.10;95.60;;;;;;5007182;28;20022;-69
2022/11/28 04:46:53;;;;;;;9.23;5.60;;;4.10;96.20;;;;;;5011750;28;20030;-69
2022/11/28 04:49:19;;;;;;;8.50;5.55;;;4.10;96.20;;;;;;5001079;28;20041;-69
2022/11/28 04:52:08;;;;;;;9.23;5.47;;;4.10;96.10;;;;;;5013439;28;20225;-69
2022/11/28 04:54:39;;;;;;;9.18;5.60;;;4.10;96.00;;;;;;5020681;28;20033;-69
2022/11/28 04:57:34;;;;;;;8.25;5.13;;;4.10;96.30;;;;;;5010648;28;20042;-69
2022/11/28 05:00:06;;;;;;;8.05;5.30;;;4.10;96.20;;;;;;5016642;28;20252;-69
2022/11/28 05:02:33;;;;;;;8.23;4.93;;;4.10;96.30;;;;;;5004821;28;20014;-69
2022/11/28 05:04:59;;;;;;;11.18;5.28;;;4.10;96.40;;;;;;5013821;28;20034;-69
2022/11/28 05:07:24;;;;;;;7.75;5.07;;;4.10;96.10;;;;;;5022855;28;20118;-69
2022/11/28 05:09:50;;;;;;;8.38;4.78;;;4.10;95.70;;;;;;5012655;28;20026;-68
2022/11/28 05:12:16;;;;;;;9.65;5.63;;;4.10;95.70;;;;;;5012474;28;20322;-69
2022/11/28 05:14:42;;;;;;;8.98;5.28;;;4.10;95.60;;;;;;5013046;28;20300;-69
2022/11/28 05:17:11;;;;;;;8.15;5.50;;;4.10;95.70;;;;;;5012644;28;20036;-69
2022/11/28 05:19:36;;;;;;;8.50;5.18;;;4.10;95.90;;;;;;5016979;28;20017;-69
2022/11/28 05:22:02;;;;;;;8.70;4.93;;;4.10;96.00;;;;;;5019576;28;20111;-69
2022/11/28 05:24:28;;;;;;;7.55;4.80;;;4.00;96.20;;;;;;5027715;28;20026;-69
2022/11/28 05:26:53;;;;;;;8.55;5.28;;;4.00;96.30;;;;;;5025718;28;20105;-69
2022/11/28 05:29:19;;;;;;;8.52;4.88;;;3.90;96.40;;;;;;5028987;28;20030;-69
2022/11/28 05:31:45;;;;;;;10.13;5.22;;;3.90;96.50;;;;;;5014558;28;20423;-69
2022/11/28 05:34:10;;;;;;;7.75;5.40;;;3.80;96.50;;;;;;5036592;28;20033;-69
2022/11/28 05:36:36;;;;;;;8.27;5.40;;;3.90;96.40;;;;;;5034799;28;20029;-69
2022/11/28 05:39:01;;;;;;;7.78;5.05;;;3.90;96.70;;;;;;5034016;28;20323;-68
2022/11/28 05:41:32;;;;;;;9.18;5.20;;;3.90;96.90;;;;;;5025012;28;20025;-69
2022/11/28 05:43:59;;;;;;;7.18;4.50;;;3.90;96.90;;;;;;5030144;28;20045;-69
2022/11/28 05:46:25;;;;;;;7.75;4.40;;;3.90;97.00;;;;;;5034260;28;20366;-69
2022/11/28 05:48:51;;;;;;;10.98;4.30;;;4.00;96.40;;;;;;5034636;28;20043;-68
2022/11/28 05:51:16;;;;;;;5.88;3.42;;;4.00;95.90;;;;;;5034739;28;20099;-69
2022/11/28 05:53:42;;;;;;;6.45;3.10;;;4.10;95.10;;;;;;5023468;28;20056;-69
2022/11/28 05:56:10;;;;;;;6.85;3.60;;;4.20;94.40;;;;;;5017045;28;20034;-69
2022/11/28 05:58:36;;;;;;;5.63;3.25;;;4.30;94.40;;;;;;5021571;28;20030;-69
2022/11/28 06:01:21;;;;;;;8.38;3.90;;;4.30;94.00;;;;;;5034972;28;20041;-69
2022/11/28 06:03:47;;;;;;;7.88;3.72;;;4.40;93.50;;;;;;5032651;28;20025;-69
2022/11/28 06:06:20;;;;;;;5.88;3.35;;;4.40;93.20;;;;;;5035031;28;20036;-68
2022/11/28 06:08:48;;;;;;;8.60;4.63;;;4.40;93.40;;;;;;5030658;28;20029;-69
2022/11/28 06:11:15;;;;;;;6.18;3.47;;;4.30;94.20;;;;;;5016188;28;20037;-69
2022/11/28 06:13:42;;;;;;;8.63;4.90;;;4.30;93.50;;;;;;5020924;28;20149;-69
2022/11/28 06:16:13;;;;;;;6.78;3.80;;;4.30;94.30;;;;;;5032645;28;20033;-68
2022/11/28 06:18:39;;;;;;;11.98;7.70;;;4.30;94.30;;;;;;5017103;28;20030;-69
2022/11/28 06:21:07;;;;;;;6.55;3.53;;;4.30;94.00;;;;;;5049986;28;20035;-69
2022/11/28 06:23:32;;;;;;;5.50;3.40;;;4.30;94.50;;;;;;5025162;28;20100;-69
2022/11/28 06:26:09;;;;;;;7.20;4.10;;;4.30;94.20;;;;;;5040341;28;20024;-69
2022/11/28 06:28:35;;;;;;;10.40;3.85;;;4.40;94.30;;;;;;5012984;28;20026;-68
2022/11/28 06:31:01;;;;;;;9.00;4.28;;;4.40;94.10;;;;;;5025477;28;20052;-69
2022/11/28 06:33:27;;;;;;;8.20;4.18;;;4.50;94.10;;;;;;5033951;28;20026;-69
2022/11/28 06:36:02;;;;;;;6.85;3.55;;;4.50;93.30;;;;;;5041635;28;20041;-69
2022/11/28 06:38:27;;;;;;;6.50;4.13;;;4.50;93.60;;;;;;5033843;28;20052;-69
2022/11/28 06:41:04;;;;;;;5.85;3.40;;;4.60;94.00;;;;;;5033312;28;20473;-69
2022/11/28 06:43:33;;;;;;;5.00;2.55;;;4.70;93.20;;;;;;5030065;28;20053;-69
2022/11/28 06:45:59;;;;;;;4.75;2.60;;;4.90;92.00;;;;;;5031710;28;20033;-69
2022/11/28 06:48:25;;;;;;;6.30;2.97;;;5.10;91.40;;;;;;5037933;28;20035;-69
2022/11/28 06:50:51;;;;;;;4.72;2.50;;;5.10;91.60;;;;;;5040245;28;20029;-69
2022/11/28 06:53:17;;;;;;;6.40;2.42;;;5.20;91.40;;;;;;5031011;28;20446;-69
2022/11/28 06:55:44;;;;;;;4.78;2.40;;;5.20;91.50;;;;;;5034396;28;20030;-68
2022/11/28 06:58:09;;;;;;;8.02;4.30;;;5.30;91.50;;;;;;5024418;28;20034;-68
2022/11/28 07:00:35;;;;;;;10.57;5.13;;;5.20;92.30;;;;;;5033895;28;20041;-68
2022/11/28 07:03:01;;;;;;;11.00;5.53;;;5.10;92.90;;;;;;5035437;28;20060;-68
2022/11/28 07:05:29;;;;;;;11.23;6.30;;;5.10;93.00;;;;;;5034189;28;20069;-69
2022/11/28 07:07:59;;;;;;;7.75;4.75;;;5.10;94.00;;;;;;5024405;28;20090;-70
2022/11/28 07:10:26;;;;;;;8.93;4.65;;;5.10;94.50;;;;;;5015831;28;20056;-69
2022/11/28 07:12:56;;;;;;;8.55;4.97;;;5.10;95.20;;;;;;5040409;28;20041;-69
2022/11/28 07:15:23;;;;;;;10.85;5.07;;;5.00;95.60;;;;;;5031529;28;20045;-70
2022/11/28 07:17:49;;;;;;;9.73;4.93;;;5.00;96.00;;;;;;5029548;28;20045;-69
2022/11/28 07:20:15;;;;;;;14.05;9.15;;;4.80;96.60;;;;;;5029204;28;20505;-69
2022/11/28 07:22:42;;;;;;;10.05;7.13;;;4.60;96.80;;;;;;5030120;28;20092;-69
2022/11/28 07:25:08;;;;;;;62.35;24.05;;;4.60;97.10;;;;;;5020172;28;20100;-69
2022/11/28 07:27:34;;;;;;;21.35;12.05;;;4.60;97.70;;;;;;5020973;28;20029;-69
2022/11/28 07:29:59;;;;;;;35.28;20.08;;;4.70;97.40;;;;;;5027638;28;20418;-69
2022/11/28 07:32:25;;;;;;;40.40;19.42;;;4.70;97.50;;;;;;5026178;28;20030;-69
2022/11/28 07:34:50;;;;;;;37.10;20.33;;;4.90;97.00;;;;;;5018199;28;20026;-69
2022/11/28 07:37:16;;;;;;;15.70;10.02;;;4.90;97.20;;;;;;5020542;28;20415;-69
2022/11/28 07:39:43;;;;;;;18.13;10.55;;;4.90;97.40;;;;;;5020495;28;20037;-69
2022/11/28 07:42:09;;;;;;;18.52;12.13;;;5.00;97.70;;;;;;5019162;28;20026;-69
2022/11/28 07:44:35;;;;;;;9.07;6.43;;;5.10;96.60;;;;;;5017546;28;20358;-69
2022/11/28 07:47:00;;;;;;;9.05;5.05;;;5.30;94.80;;;;;;5018838;28;20033;-69
2022/11/28 07:49:26;;;;;;;10.25;7.40;;;5.40;95.60;;;;;;5017944;28;20077;-69
2022/11/28 07:51:52;;;;;;;7.90;5.15;;;5.50;94.70;;;;;;5019140;28;20036;-69
2022/11/28 07:54:17;;;;;;;8.27;4.60;;;5.50;94.70;;;;;;5018468;28;20037;-69
2022/11/28 07:56:43;;;;;;;14.50;8.02;;;5.60;95.80;;;;;;5029893;28;20025;-69
2022/11/28 07:59:08;;;;;;;12.88;6.78;;;5.60;95.20;;;;;;5025528;28;20115;-69
2022/11/28 08:01:35;;;;;;;9.52;4.90;;;5.60;94.90;;;;;;5037633;28;20021;-69
2022/11/28 08:04:02;;;;;;;14.13;6.32;;;5.70;94.90;;;;;;5020089;28;20029;-69
2022/11/28 08:06:29;;;;;;;9.57;5.65;;;5.70;95.60;;;;;;5029053;28;20026;-69
2022/11/28 08:08:56;;;;;;;7.45;4.57;;;5.60;96.00;;;;;;5014431;28;20418;-69
2022/11/28 08:11:24;;;;;;;5.93;3.65;;;5.60;96.10;;;;;;5018183;28;20041;-69
2022/11/28 08:13:50;;;;;;;17.10;11.20;;;5.70;95.10;;;;;;5027224;28;20042;-69
2022/11/28 08:16:19;;;;;;;15.93;11.45;;;5.80;94.40;;;;;;5025654;28;20040;-69
2022/11/28 08:18:45;;;;;;;22.83;14.38;;;6.00;94.10;;;;;;5036112;28;20510;-69
2022/11/28 08:21:14;;;;;;;11.23;6.70;;;6.00;94.20;;;;;;5023516;28;20053;-69
2022/11/28 08:23:41;;;;;;;8.68;4.50;;;6.10;95.10;;;;;;5018368;28;20327;-70
2022/11/28 08:26:09;;;;;;;10.55;4.75;;;6.00;95.70;;;;;;5018308;28;20026;-69
2022/11/28 08:28:36;;;;;;;9.43;4.97;;;5.90;96.00;;;;;;5017846;28;20022;-69
2022/11/28 08:31:15;;;;;;;7.70;4.78;;;5.80;96.00;;;;;;5035014;28;20034;-69
2022/11/28 08:33:41;;;;;;;7.63;4.15;;;5.90;96.30;;;;;;5036781;28;20453;-69
2022/11/28 08:36:09;;;;;;;8.68;6.00;;;6.00;96.00;;;;;;5033195;28;20040;-69
2022/11/28 08:38:36;;;;;;;9.35;5.93;;;6.00;96.00;;;;;;5021896;28;20112;-69
2022/11/28 08:41:02;;;;;;;10.85;5.20;;;6.00;96.40;;;;;;5018370;28;20423;-69
2022/11/28 08:43:28;;;;;;;11.15;5.38;;;6.00;96.50;;;;;;5017283;28;20395;-69
2022/11/28 08:45:54;;;;;;;10.32;6.63;;;6.00;96.80;;;;;;5023379;28;20026;-69
2022/11/28 08:48:19;;;;;;;14.18;8.40;;;6.20;96.40;;;;;;5019948;28;20117;-69
2022/11/28 08:50:47;;;;;;;13.20;8.25;;;6.30;96.20;;;;;;5045367;28;20330;-69
2022/11/28 08:53:12;;;;;;;9.18;5.25;;;6.40;96.50;;;;;;5037660;28;20112;-69
2022/11/28 08:55:40;;;;;;;8.85;4.68;;;6.50;95.90;;;;;;5025266;28;20097;-69
2022/11/28 08:58:07;;;;;;;8.70;5.03;;;6.60;95.60;;;;;;5017555;28;20034;-69
2022/11/28 09:00:32;;;;;;;8.95;5.00;;;6.70;95.70;;;;;;5005628;28;20410;-69
2022/11/28 09:02:58;;;;;;;8.20;4.50;;;6.80;95.10;;;;;;5036810;28;20064;-69
2022/11/28 09:05:24;;;;;;;8.07;3.72;;;6.80;94.70;;;;;;5037323;28;20326;-68
2022/11/28 09:07:49;;;;;;;8.50;4.13;;;7.00;93.80;;;;;;5037324;28;20112;-69
2022/11/28 09:10:15;;;;;;;8.57;4.10;;;7.10;93.80;;;;;;5010632;28;20041;-69
2022/11/28 09:12:40;;;;;;;6.85;3.85;;;7.20;93.30;;;;;;5037415;28;20037;-69
2022/11/28 09:15:07;;;;;;;6.85;3.85;;;7.10;93.80;;;;;;5034879;28;20427;-69
2022/11/28 09:17:32;;;;;;;11.20;6.78;;;7.30;93.40;;;;;;5017399;28;20030;-69
2022/11/28 09:19:58;;;;;;;19.00;13.23;;;7.30;92.30;;;;;;5017837;28;20175;-69
2022/11/28 09:22:23;;;;;;;22.08;13.77;;;7.40;93.00;;;;;;5016944;28;20061;-69
2022/11/28 09:24:49;;;;;;;20.52;13.27;;;7.40;93.60;;;;;;5017855;28;20034;-69
2022/11/28 09:27:14;;;;;;;35.03;19.35;;;7.60;94.20;;;;;;5017108;28;20427;-69
2022/11/28 09:29:40;;;;;;;44.00;23.65;;;7.80;92.80;;;;;;5018545;28;20034;-69
2022/11/28 09:32:06;;;;;;;15.88;9.85;;;8.10;89.90;;;;;;5036971;28;20057;-69
2022/11/28 09:34:32;;;;;;;16.13;9.00;;;8.20;91.90;;;;;;5026677;28;20030;-69
2022/11/28 09:36:57;;;;;;;15.63;8.05;;;8.30;92.50;;;;;;5016971;28;20363;-69
2022/11/28 09:39:23;;;;;;;11.68;7.63;;;8.40;93.20;;;;;;5027185;28;20087;-69
2022/11/28 09:41:53;;;;;;;11.55;6.43;;;8.40;93.30;;;;;;5036825;28;20292;-69
2022/11/28 09:44:35;;;;;;;9.85;5.03;;;8.40;93.60;;;;;;5026631;28;20096;-69
2022/11/28 09:47:07;;;;;;;9.68;4.10;;;8.40;91.30;;;;;;5021466;28;20026;-69
2022/11/28 09:49:51;;;;;;;7.10;3.50;;;8.50;85.60;;;;;;5029602;28;20112;-68
2022/11/28 09:52:52;;;;;;;5.75;3.40;;;8.70;85.20;;;;;;5035944;28;20419;-69
2022/11/28 09:55:29;;;;;;;18.83;11.95;;;8.90;85.20;;;;;;5012187;28;20080;-68
2022/11/28 09:57:55;;;;;;;12.63;8.30;;;9.10;84.10;;;;;;4999248;28;20335;-68
2022/11/28 10:00:27;;;;;;;7.00;3.08;;;9.20;83.90;;;;;;5028064;28;20023;-70
2022/11/28 10:03:11;;;;;;;6.45;2.70;;;9.30;83.00;;;;;;5019749;28;20109;-70
2022/11/28 10:06:24;;;;;;;9.18;4.65;;;9.30;82.60;;;;;;5016589;28;20519;-70
2022/11/28 10:08:53;;;;;;;8.25;3.33;;;9.30;85.40;;;;;;5016462;28;20334;-70
2022/11/28 10:11:50;;;;;;;8.48;3.22;;;9.40;83.20;;;;;;5016217;28;20026;-69
2022/11/28 10:14:40;;;;;;;8.85;4.72;;;9.70;82.70;;;;;;5015081;28;20426;-69
2022/11/28 10:17:35;;;;;;;6.97;3.33;;;9.90;81.10;;;;;;5023092;28;20052;-69
2022/11/28 10:20:07;;;;;;;6.95;2.60;;;10.00;81.00;;;;;;5018642;28;20379;-69
2022/11/28 10:22:47;;;;;;;5.13;2.40;;;10.20;81.30;;;;;;5035976;28;20122;-69
2022/11/28 10:25:35;;;;;;;5.82;2.65;;;10.40;80.30;;;;;;5036103;28;20017;-70
2022/11/28 10:28:05;;;;;;;5.93;2.42;;;10.60;81.00;;;;;;5018509;28;20141;-69
2022/11/28 10:30:36;;;;;;;8.48;2.10;;;10.60;79.90;;;;;;5034887;28;20116;-69
2022/11/28 10:33:34;;;;;;;5.80;2.40;;;10.60;80.10;;;;;;5033779;28;20038;-69
2022/11/28 10:36:02;;;;;;;5.78;2.10;;;10.70;80.10;;;;;;4998875;28;20030;-69
2022/11/28 10:38:32;;;;;;;130.13;75.63;;;10.70;79.60;;;;;;5015860;28;20029;-69
2022/11/28 10:41:39;;;;;;;16.15;7.50;;;10.70;80.30;;;;;;5016282;28;20014;-69
2022/11/28 10:44:30;;;;;;;13.40;7.43;;;10.70;81.80;;;;;;5006263;28;20062;-70
2022/11/28 10:47:34;;;;;;;7.53;3.47;;;10.70;82.10;;;;;;5016024;28;20037;-68
2022/11/28 10:50:20;;;;;;;6.20;2.75;;;10.70;82.20;;;;;;5016359;28;20385;-68
2022/11/28 10:52:57;;;;;;;5.78;2.00;;;10.60;82.40;;;;;;5035694;28;20044;-68
2022/11/28 10:55:36;;;;;;;19.05;8.98;;;10.50;81.70;;;;;;5035682;28;20025;-68
2022/11/28 10:58:07;;;;;;;16.73;9.75;;;10.40;81.50;;;;;;5035609;28;20026;-69
2022/11/28 11:00:35;;;;;;;16.98;10.00;;;10.30;82.10;;;;;;5034606;28;20030;-70
2022/11/28 11:03:02;;;;;;;15.15;9.38;;;10.40;81.70;;;;;;5018064;28;20079;-69
2022/11/28 11:05:32;;;;;;;11.25;6.82;;;10.50;83.00;;;;;;5029056;28;20030;-68
2022/11/28 11:08:10;;;;;;;11.35;6.82;;;10.50;81.00;;;;;;5019664;28;20094;-69
2022/11/28 11:10:44;;;;;;;7.60;4.07;;;10.50;81.40;;;;;;5019709;28;20431;-68
2022/11/28 11:13:18;;;;;;;11.02;6.00;;;10.50;80.70;;;;;;5019889;28;20030;-68
2022/11/28 11:15:45;;;;;;;;;;;10.70;81.70;;;;;;5019019;28;20034;-69
2022/11/28 11:18:29;;;;;;;13.63;6.47;;;10.70;82.30;;;;;;5019426;28;19913;-68
2022/11/28 11:21:19;;;;;;;10.57;5.55;;;10.80;82.60;;;;;;5034901;28;20033;-68
2022/11/28 11:23:45;;;;;;;6.53;3.42;;;10.80;82.00;;;;;;5039157;28;20042;-68
2022/11/28 11:26:32;;;;;;;6.88;3.13;;;10.90;82.00;;;;;;5039299;28;20383;-68
2022/11/28 11:28:58;;;;;;;5.22;2.97;;;11.00;81.70;;;;;;5038069;28;20050;-68
2022/11/28 11:31:30;;;;;;;5.95;2.70;;;10.90;80.80;;;;;;5038028;28;20034;-68
2022/11/28 11:34:06;;;;;;;7.20;2.85;;;11.00;79.90;;;;;;5038574;28;20083;-68
2022/11/28 11:36:35;;;;;;;7.70;4.20;;;11.00;79.50;;;;;;5039034;28;20385;-69
2022/11/28 11:39:15;;;;;;;13.05;8.10;;;10.90;80.80;;;;;;5038746;28;20109;-68
2022/11/28 11:42:03;;;;;;;14.82;6.70;;;10.70;83.10;;;;;;5039124;28;20017;-69
2022/11/28 11:44:35;;;;;;;13.50;7.20;;;10.30;85.90;;;;;;5030506;28;20030;-68
2022/11/28 11:47:09;;;;;;;13.32;7.43;;;9.70;88.20;;;;;;5037840;28;20025;-68
2022/11/28 11:49:37;;;;;;;14.68;7.10;;;9.40;89.40;;;;;;5034608;28;20029;-68
2022/11/28 11:52:12;;;;;;;10.82;6.45;;;9.30;89.60;;;;;;5035806;28;20032;-68
2022/11/28 11:55:10;;;;;;;10.40;5.82;;;9.20;90.30;;;;;;5038597;28;20018;-69
2022/11/28 11:57:38;;;;;;;11.30;5.97;;;9.40;89.40;;;;;;5038515;28;20036;-68
2022/11/28 12:00:07;;;;;;;12.57;6.47;;;9.50;90.20;;;;;;5037641;28;20017;-68
2022/11/28 12:02:58;;;;;;;11.60;5.68;;;9.50;92.40;;;;;;5038593;28;20155;-68
2022/11/28 12:05:45;;;;;;;8.90;5.70;;;9.50;93.20;;;;;;5037901;28;20029;-68
2022/11/28 12:08:32;;;;;;;12.90;6.97;;;9.60;93.90;;;;;;5038483;28;20025;-68
2022/11/28 12:11:22;;;;;;;9.45;5.18;;;9.70;93.90;;;;;;5038403;28;20036;-68
2022/11/28 12:13:49;;;;;;;8.27;4.85;;;9.60;92.30;;;;;;5037416;28;20033;-68
2022/11/28 12:16:33;;;;;;;7.47;4.63;;;9.60;92.50;;;;;;5037352;28;20022;-68
2022/11/28 12:19:11;;;;;;;9.68;6.13;;;9.60;92.90;;;;;;5038312;28;20025;-68
2022/11/28 12:22:15;;;;;;;10.50;6.35;;;9.60;93.20;;;;;;5037305;28;20488;-68
2022/11/28 12:24:49;;;;;;;8.18;5.28;;;9.50;93.70;;;;;;5038171;28;20034;-68
2022/11/28 12:27:26;;;;;;;;;;;9.50;94.70;;;;;;5038774;28;20317;-68
2022/11/28 12:30:12;;;;;;;8.32;3.80;;;9.60;94.40;;;;;;5036961;28;19905;-68
2022/11/28 12:33:23;;;;;;;6.32;2.75;;;9.70;94.80;;;;;;5038005;28;20025;-67
2022/11/28 12:36:21;;;;;;;6.38;3.17;;;9.80;93.80;;;;;;5028444;28;20038;-68
2022/11/28 12:39:07;;;;;;;29.00;19.73;;;9.90;93.20;;;;;;5035812;28;20988;-68
2022/11/28 12:41:55;;;;;;;8.80;4.68;;;9.90;93.30;;;;;;5020997;28;20086;-68
2022/11/28 12:44:47;;;;;;;8.68;5.78;;;10.10;92.70;;;;;;5033486;28;20101;-69
2022/11/28 12:47:39;;;;;;;8.95;3.58;;;10.10;93.30;;;;;;5036218;28;20017;-68
2022/11/28 12:50:23;;;;;;;5.63;2.50;;;10.40;92.30;;;;;;5017961;28;20030;-68
2022/11/28 12:53:32;;;;;;;7.63;2.78;;;10.40;90.90;;;;;;5022670;28;20100;-68
2022/11/28 12:56:22;;;;;;;7.05;3.10;;;10.40;91.30;;;;;;5018307;28;20440;-70
2022/11/28 12:59:12;;;;;;;8.10;3.33;;;10.50;91.10;;;;;;5037479;28;20030;-69
2022/11/28 13:02:12;;;;;;;12.38;7.03;;;10.50;89.70;;;;;;5036939;28;20467;-69
2022/11/28 13:05:25;;;;;;;15.30;9.70;;;10.40;91.40;;;;;;5036517;28;20041;-69
2022/11/28 13:08:28;;;;;;;9.82;4.80;;;10.40;93.40;;;;;;4995078;28;20046;-69
2022/11/28 13:11:18;;;;;;;6.55;3.08;;;10.50;92.00;;;;;;4995070;28;20073;-69
2022/11/28 13:13:53;;;;;;;9.73;4.68;;;10.60;91.60;;;;;;5015950;28;20826;-69
2022/11/28 13:16:28;;;;;;;9.70;5.07;;;10.60;91.20;;;;;;5043377;28;20079;-68
2022/11/28 13:19:04;;;;;;;7.80;4.55;;;10.70;91.70;;;;;;5038734;28;20041;-69
2022/11/28 13:22:02;;;;;;;14.13;9.20;;;10.70;91.90;;;;;;5036161;28;20026;-69